Terminal Aerodrome Forecast
Issued by NWS North Platte, NE

Home | Current Version | Previous Version | Text Only | Print | Product List | Glossary On
Versions: 1 2 3 4 5 6 7 8 9 10 11 12 13 14 15 16 17 18 19 20 21
239
FTUS43 KLBF 242340
TAFLBF
TAF
KLBF 242340Z 2500/2524 34012KT P6SM OVC100
     FM250300 VRB03KT P6SM BKN100
     FM251500 21005KT P6SM BKN110
     FM251800 25011KT P6SM SCT110 BKN250
     FM252100 27011KT P6SM SCT250=

USA.gov is the U.S. government's official web portal to all federal, state and local government web resources and services.